Terminal Aerodrome Forecast
Issued by NWS

Home | Current Version | Previous Version | Text Only | Print | Product List | Glossary Off
Versions: 1 2 3 4 5 6 7 8 9 10 11 12 13 14 15 16 17 18 19 20

000
FTUS43 KEAX 030520
TAFMKC
TAF
KMKC 030520Z 0306/0406 22006KT P6SM SCT150
      TEMPO 0306/0307 05010G20KT
     FM031100 VRB06KT P6SM SCT040
     FM031800 12007KT P6SM SCT080=

USA.gov is the U.S. government's official web portal to all federal, state and local government web resources and services.